Time;durP1;ratioP1;P1;durP2;ratioP2;P2;SDS_P1;SDS_P2;PMS_P1;PMS_P2;Temp;Humidity;BMP_temperature;BMP_pressure;BME280_temperature;BME280_humidity;BME280_pressure;Samples;Min_cycle;Max_cycle;Signal;HPM_P1;HPM_P2
2022/03/30 00:04:21;;;;;;;42.30;26.13;;;;;9.30;100172.00;;;;10131772;29;20245;-82
2022/03/30 00:09:23;;;;;;;40.93;25.17;;;;;9.20;100168.00;;;;10137837;29;20213;-82
2022/03/30 00:14:25;;;;;;;37.57;23.20;;;;;9.10;100162.00;;;;10094394;29;20203;-81
2022/03/30 00:19:28;;;;;;;39.30;24.33;;;;;9.00;100163.00;;;;10109459;29;20896;-82
2022/03/30 00:24:30;;;;;;;37.67;24.10;;;;;9.00;100155.00;;;;10108749;29;20204;-81
2022/03/30 00:29:33;;;;;;;39.87;25.47;;;;;8.90;100148.00;;;;10111879;29;20203;-82
2022/03/30 00:34:35;;;;;;;40.67;24.33;;;;;8.80;100144.00;;;;10141867;29;20221;-80
2022/03/30 00:39:37;;;;;;;35.90;24.50;;;;;8.70;100143.00;;;;10170332;29;20428;-82
2022/03/30 00:44:39;;;;;;;39.93;25.13;;;;;8.70;100133.00;;;;10186005;29;20258;-81
2022/03/30 00:49:41;;;;;;;39.77;24.47;;;;;8.70;100141.00;;;;10097627;29;20191;-82
2022/03/30 00:54:45;;;;;;;36.73;23.63;;;;;8.70;100135.00;;;;10201812;29;20206;-82
2022/03/30 00:59:48;;;;;;;40.73;24.23;;;;;8.70;100135.00;;;;10168703;29;20222;-80
2022/03/30 01:04:50;;;;;;;41.13;23.33;;;;;8.70;100128.00;;;;10181155;29;20270;-79
2022/03/30 01:09:52;;;;;;;36.70;23.30;;;;;8.70;100128.00;;;;10158758;29;20224;-78
2022/03/30 01:14:54;;;;;;;40.77;23.77;;;;;8.70;100128.00;;;;10181833;29;20198;-80
2022/03/30 01:19:56;;;;;;;37.90;23.67;;;;;8.70;100111.00;;;;10182186;29;20665;-78
2022/03/30 01:24:58;;;;;;;36.80;22.83;;;;;8.60;100101.00;;;;10166856;29;20201;-78
2022/03/30 01:35:34;;;;;;;38.63;23.83;;;;;8.50;100092.00;;;;10191000;29;20199;-77
2022/03/30 01:40:37;;;;;;;42.23;23.77;;;;;8.50;100089.00;;;;10158696;29;20230;-78
2022/03/30 01:45:38;;;;;;;37.37;22.53;;;;;8.40;100093.00;;;;10129101;29;20195;-78
2022/03/30 01:50:40;;;;;;;35.50;23.80;;;;;8.30;100083.00;;;;10140156;29;20199;-79
2022/03/30 01:55:42;;;;;;;43.83;25.67;;;;;8.20;100067.00;;;;10120039;29;20260;-78
2022/03/30 02:00:45;;;;;;;39.90;24.53;;;;;8.10;100070.00;;;;10104461;29;20280;-77
2022/03/30 02:05:47;;;;;;;39.43;24.20;;;;;8.00;100053.00;;;;10104116;29;20238;-77
2022/03/30 02:10:49;;;;;;;42.37;23.83;;;;;7.90;100055.00;;;;10126120;29;20206;-78
2022/03/30 02:15:51;;;;;;;41.43;24.80;;;;;7.80;100059.00;;;;10181546;29;20269;-77
2022/03/30 02:20:54;;;;;;;44.07;25.13;;;;;7.80;100053.00;;;;10167005;29;20226;-77
2022/03/30 02:25:56;;;;;;;40.00;24.13;;;;;7.80;100053.00;;;;10165689;29;20202;-77
2022/03/30 02:30:58;;;;;;;41.17;24.83;;;;;7.80;100050.00;;;;10180825;29;20269;-78
2022/03/30 02:36:00;;;;;;;43.00;25.60;;;;;7.80;100055.00;;;;10150777;29;20243;-78
2022/03/30 02:41:05;;;;;;;39.57;24.63;;;;;7.80;100048.00;;;;10165475;29;20270;-77
2022/03/30 02:46:07;;;;;;;36.77;25.50;;;;;7.80;100043.00;;;;10133212;29;20210;-78
2022/03/30 02:51:09;;;;;;;42.00;25.60;;;;;7.80;100042.00;;;;10163745;29;20218;-78
2022/03/30 02:56:11;;;;;;;38.10;23.30;;;;;7.80;100041.00;;;;10145162;29;20286;-78
2022/03/30 03:01:13;;;;;;;43.23;24.37;;;;;7.80;100035.00;;;;10141280;29;20231;-79
2022/03/30 03:06:15;;;;;;;43.37;23.23;;;;;7.80;100028.00;;;;10142098;29;20645;-79
2022/03/30 03:11:17;;;;;;;43.30;24.87;;;;;7.80;100027.00;;;;10109553;29;20548;-78
2022/03/30 03:16:19;;;;;;;38.67;23.27;;;;;7.80;100026.00;;;;10108841;29;20208;-79
2022/03/30 03:21:21;;;;;;;45.13;24.97;;;;;7.70;100014.00;;;;10109036;29;20304;-78
2022/03/30 03:26:23;;;;;;;37.97;23.00;;;;;7.70;100019.00;;;;10124529;29;20207;-77
2022/03/30 03:31:25;;;;;;;46.70;25.57;;;;;7.60;100015.00;;;;10125886;29;20208;-78
2022/03/30 03:36:27;;;;;;;46.20;25.03;;;;;7.60;100011.00;;;;10126666;29;20671;-77
2022/03/30 03:41:29;;;;;;;36.73;23.10;;;;;7.50;100014.00;;;;10109993;29;20652;-77
2022/03/30 03:46:31;;;;;;;46.80;23.83;;;;;7.50;100010.00;;;;10135031;29;20233;-77
2022/03/30 03:51:33;;;;;;;38.70;22.80;;;;;7.40;100009.00;;;;10147764;29;20239;-79
2022/03/30 03:56:35;;;;;;;40.60;22.77;;;;;7.40;100003.00;;;;10148185;29;20226;-78
2022/03/30 04:01:37;;;;;;;44.37;23.33;;;;;7.40;100008.00;;;;10162266;29;20231;-78
2022/03/30 04:06:39;;;;;;;37.23;21.03;;;;;7.30;99999.00;;;;10136125;29;20309;-79
2022/03/30 04:11:41;;;;;;;40.23;23.67;;;;;7.30;99992.00;;;;10138699;29;20322;-79
2022/03/30 04:16:43;;;;;;;40.50;23.10;;;;;7.30;99998.00;;;;10106894;29;20200;-79
2022/03/30 04:21:45;;;;;;;43.93;22.90;;;;;7.30;100001.00;;;;10091405;29;20227;-79
2022/03/30 04:26:48;;;;;;;40.53;23.53;;;;;7.30;100005.00;;;;10108202;29;20298;-79
2022/03/30 04:31:49;;;;;;;37.80;21.77;;;;;7.30;99998.00;;;;10138901;29;20605;-79
2022/03/30 04:36:51;;;;;;;42.13;22.03;;;;;7.30;100002.00;;;;10107321;29;20204;-78
2022/03/30 04:41:53;;;;;;;36.77;21.67;;;;;7.30;99994.00;;;;10121521;29;20219;-77
2022/03/30 04:46:55;;;;;;;40.13;22.00;;;;;7.20;99986.00;;;;10124191;29;20307;-78
2022/03/30 04:51:57;;;;;;;36.87;21.57;;;;;7.10;99993.00;;;;10130130;29;20861;-77
2022/03/30 04:56:59;;;;;;;47.93;23.67;;;;;7.00;99981.00;;;;10124893;29;20268;-77
2022/03/30 05:02:01;;;;;;;38.37;23.40;;;;;7.00;99983.00;;;;10122805;29;20231;-78
2022/03/30 05:07:03;;;;;;;43.30;22.77;;;;;6.90;99985.00;;;;10101799;29;20211;-79
2022/03/30 05:12:05;;;;;;;41.93;22.83;;;;;6.90;99986.00;;;;10115686;29;20268;-80
2022/03/30 05:17:08;;;;;;;42.30;23.67;;;;;6.90;99981.00;;;;10106697;29;20264;-79
2022/03/30 05:22:11;;;;;;;44.00;23.13;;;;;6.90;99993.00;;;;10120607;29;20316;-79
2022/03/30 05:27:13;;;;;;;45.80;24.30;;;;;6.80;99990.00;;;;10150657;29;20244;-77
2022/03/30 05:32:15;;;;;;;44.07;25.97;;;;;6.80;99993.00;;;;10164906;29;20234;-79
2022/03/30 05:37:18;;;;;;;48.33;23.97;;;;;6.70;99989.00;;;;10136350;29;20206;-79
2022/03/30 05:42:21;;;;;;;44.73;25.57;;;;;6.70;99976.00;;;;10158433;29;20223;-80
2022/03/30 05:47:23;;;;;;;44.93;24.27;;;;;6.70;99989.00;;;;10142577;29;20207;-80
2022/03/30 05:52:26;;;;;;;50.10;25.53;;;;;6.80;99984.00;;;;10160487;29;20199;-79
2022/03/30 05:57:28;;;;;;;43.73;23.43;;;;;6.90;99998.00;;;;10160711;29;20195;-79
2022/03/30 06:02:29;;;;;;;43.83;24.67;;;;;7.00;99995.00;;;;10143046;29;20697;-79
2022/03/30 06:07:31;;;;;;;45.97;25.53;;;;;7.20;100003.00;;;;10110724;29;20524;-78
2022/03/30 06:12:33;;;;;;;49.20;26.07;;;;;7.50;100018.00;;;;10148798;29;20217;-79
2022/03/30 06:17:35;;;;;;;48.47;26.90;;;;;7.70;100009.00;;;;10150992;29;20214;-78
2022/03/30 06:22:39;;;;;;;42.47;24.93;;;;;7.70;99996.00;;;;10167228;29;20247;-79
2022/03/30 06:27:42;;;;;;;48.70;25.67;;;;;7.70;99998.00;;;;10151950;29;20224;-80
2022/03/30 06:32:49;;;;;;;48.20;25.97;;;;;7.80;99995.00;;;;10151594;29;20230;-79
2022/03/30 06:37:51;;;;;;;41.63;24.40;;;;;8.00;100003.00;;;;10151526;29;20293;-80
2022/03/30 06:42:54;;;;;;;51.40;25.93;;;;;8.30;100000.00;;;;10151052;29;20309;-79
2022/03/30 06:47:56;;;;;;;46.63;24.50;;;;;8.60;99990.00;;;;10136762;29;20202;-79
2022/03/30 06:53:01;;;;;;;45.37;22.53;;;;;8.90;99991.00;;;;10139995;29;20206;-80
2022/03/30 06:58:03;;;;;;;47.33;23.57;;;;;9.20;99992.00;;;;10136232;29;20210;-79
2022/03/30 07:03:05;;;;;;;43.90;22.63;;;;;9.30;100003.00;;;;10150312;29;20346;-80
2022/03/30 07:13:29;;;;;;;37.77;21.73;;;;;9.70;99996.00;;;;10164681;29;20206;-80
2022/03/30 07:18:31;;;;;;;43.40;23.00;;;;;10.30;99997.00;;;;10171195;29;20221;-80
2022/03/30 07:23:33;;;;;;;35.47;21.03;;;;;10.90;99997.00;;;;10141365;29;20214;-81
2022/03/30 07:28:37;;;;;;;41.97;22.43;;;;;10.90;99993.00;;;;10119345;29;20267;-80
2022/03/30 07:33:39;;;;;;;31.37;20.30;;;;;10.90;99992.00;;;;10149367;29;20199;-79
2022/03/30 07:38:41;;;;;;;33.23;20.07;;;;;10.90;100004.00;;;;10151417;29;20207;-80
2022/03/30 07:43:43;;;;;;;33.13;20.50;;;;;10.80;100010.00;;;;10148308;29;20234;-81
2022/03/30 07:48:45;;;;;;;35.90;19.87;;;;;10.90;100032.00;;;;10144405;29;20215;-80
2022/03/30 07:53:47;;;;;;;36.70;20.87;;;;;11.00;100031.00;;;;10129869;29;20215;-80
2022/03/30 07:58:49;;;;;;;36.83;20.77;;;;;11.00;100032.00;;;;10148410;29;20202;-79
2022/03/30 08:03:51;;;;;;;34.03;19.20;;;;;10.90;100020.00;;;;10119956;29;20230;-80
2022/03/30 08:08:54;;;;;;;40.83;21.43;;;;;11.30;99999.00;;;;10127647;29;20210;-80
2022/03/30 08:13:56;;;;;;;38.90;19.87;;;;;12.20;99996.00;;;;10149360;29;20259;-80
2022/03/30 08:18:59;;;;;;;36.83;19.67;;;;;12.20;100003.00;;;;10131334;29;20756;-81
2022/03/30 08:24:02;;;;;;;32.83;19.67;;;;;12.10;100004.00;;;;10129156;29;20230;-81
2022/03/30 08:29:05;;;;;;;36.97;20.03;;;;;12.60;100001.00;;;;10129793;29;20670;-80
2022/03/30 08:34:26;;;;;;;36.73;19.17;;;;;13.60;100002.00;;;;10145508;29;20255;-80
2022/03/30 08:39:28;;;;;;;34.03;19.03;;;;;14.50;99997.00;;;;10144668;29;20591;-82
2022/03/30 08:44:31;;;;;;;31.53;18.73;;;;;14.80;99999.00;;;;10163135;29;20213;-79
2022/03/30 08:49:35;;;;;;;29.17;18.17;;;;;14.80;100010.00;;;;10141542;29;20218;-80
2022/03/30 08:54:41;;;;;;;29.17;18.57;;;;;14.30;100005.00;;;;10136266;29;20254;-78
2022/03/30 09:00:05;;;;;;;31.37;18.67;;;;;14.00;99999.00;;;;10123716;29;20218;-80
2022/03/30 09:05:12;;;;;;;33.47;18.97;;;;;13.90;100001.00;;;;10140381;29;20202;-80
2022/03/30 09:10:18;;;;;;;34.33;19.33;;;;;13.70;100001.00;;;;10115577;29;20225;-78
2022/03/30 09:15:22;;;;;;;35.87;19.13;;;;;13.80;100006.00;;;;10121861;29;20216;-79
2022/03/30 09:20:28;;;;;;;32.40;18.17;;;;;14.20;99997.00;;;;10101113;29;20239;-80
2022/03/30 09:25:31;;;;;;;29.30;19.00;;;;;15.30;99995.00;;;;10145853;29;20217;-78
2022/03/30 09:30:33;;;;;;;27.93;19.07;;;;;16.00;99993.00;;;;10126157;29;20215;-78
2022/03/30 09:35:38;;;;;;;30.57;18.60;;;;;16.70;99974.00;;;;10125841;29;20310;-80
2022/03/30 09:40:53;;;;;;;29.17;17.23;;;;;17.50;99981.00;;;;10124062;29;20317;-79
2022/03/30 09:46:14;;;;;;;31.00;17.50;;;;;17.40;99978.00;;;;10127326;29;20199;-79
2022/03/30 09:51:18;;;;;;;27.03;16.13;;;;;17.20;99970.00;;;;10155917;29;20199;-80
2022/03/30 09:56:24;;;;;;;27.43;16.47;;;;;17.30;99967.00;;;;10153601;29;20199;-79
2022/03/30 10:01:32;;;;;;;26.20;15.57;;;;;17.30;99967.00;;;;10113632;29;20215;-79
2022/03/30 10:06:40;;;;;;;23.67;15.43;;;;;17.40;99954.00;;;;10155199;29;20203;-79
2022/03/30 10:11:48;;;;;;;26.37;15.17;;;;;17.30;99966.00;;;;10116523;29;20199;-78
2022/03/30 10:16:50;;;;;;;25.23;14.83;;;;;16.50;99956.00;;;;10153886;29;20202;-78
2022/03/30 10:22:02;;;;;;;25.63;15.93;;;;;15.90;99955.00;;;;10162802;29;20231;-79
2022/03/30 10:27:19;;;;;;;26.13;16.27;;;;;15.40;99950.00;;;;10120539;29;20245;-79
2022/03/30 10:32:23;;;;;;;24.83;14.90;;;;;15.10;99955.00;;;;10130933;29;20199;-79
2022/03/30 10:37:56;;;;;;;24.07;15.80;;;;;15.20;99943.00;;;;10128203;29;20207;-79
2022/03/30 10:43:04;;;;;;;23.93;15.20;;;;;15.20;99948.00;;;;10142462;29;20242;-79
2022/03/30 10:48:18;;;;;;;19.73;14.23;;;;;15.10;99938.00;;;;10131117;29;20187;-78
2022/03/30 10:53:29;;;;;;;23.67;14.70;;;;;15.00;99935.00;;;;10144389;29;20215;-78
2022/03/30 10:58:32;;;;;;;24.37;15.57;;;;;14.90;99927.00;;;;10167723;29;20199;-78
2022/03/30 11:03:57;;;;;;;23.20;13.50;;;;;14.90;99924.00;;;;10172445;29;20230;-79
2022/03/30 11:09:01;;;;;;;23.53;14.37;;;;;15.10;99917.00;;;;10176711;29;20203;-78
2022/03/30 11:14:32;;;;;;;21.60;14.63;;;;;15.60;99909.00;;;;10167238;29;20772;-79
2022/03/30 11:19:58;;;;;;;21.87;13.47;;;;;15.60;99893.00;;;;10127609;29;20306;-79
2022/03/30 11:25:18;;;;;;;24.30;14.50;;;;;15.90;99905.00;;;;10138138;29;20199;-79
2022/03/30 11:30:20;;;;;;;20.40;13.93;;;;;16.30;99898.00;;;;10167376;29;20225;-80
2022/03/30 11:35:26;;;;;;;22.60;13.73;;;;;16.50;99883.00;;;;10143023;29;20629;-79
2022/03/30 11:40:28;;;;;;;23.40;14.83;;;;;16.70;99881.00;;;;10147136;29;20281;-79
2022/03/30 11:45:32;;;;;;;26.97;14.30;;;;;16.40;99879.00;;;;10147554;29;20198;-79
2022/03/30 11:50:47;;;;;;;22.30;14.10;;;;;16.20;99885.00;;;;10118153;29;20191;-79
2022/03/30 11:56:01;;;;;;;20.63;13.60;;;;;16.00;99871.00;;;;10129170;29;20198;-79
2022/03/30 12:01:07;;;;;;;23.37;16.10;;;;;15.80;99867.00;;;;10169703;29;20241;-80
2022/03/30 12:06:11;;;;;;;25.13;15.03;;;;;15.90;99866.00;;;;10125288;29;20236;-80
2022/03/30 12:11:13;;;;;;;23.03;14.13;;;;;16.00;99861.00;;;;10145518;29;20199;-80
2022/03/30 12:16:15;;;;;;;19.73;13.93;;;;;16.20;99857.00;;;;10135185;29;20270;-80
2022/03/30 12:21:23;;;;;;;22.10;14.10;;;;;16.50;99843.00;;;;10149828;29;20211;-80
2022/03/30 12:26:25;;;;;;;25.07;14.20;;;;;16.80;99850.00;;;;10134765;29;20203;-80
2022/03/30 12:31:32;;;;;;;18.43;13.87;;;;;16.90;99838.00;;;;10137229;29;20199;-79
2022/03/30 12:36:43;;;;;;;22.13;14.17;;;;;17.00;99833.00;;;;10108804;29;20204;-78
2022/03/30 12:42:04;;;;;;;19.67;13.80;;;;;17.20;99826.00;;;;10170071;29;20218;-78
2022/03/30 12:47:25;;;;;;;23.50;14.37;;;;;17.80;99826.00;;;;10182958;29;20190;-79
2022/03/30 12:52:32;;;;;;;23.48;15.82;;;;;18.10;99804.00;;;;10132219;29;20293;-80
2022/03/30 12:57:35;;;;;;;21.77;15.30;;;;;17.90;99803.00;;;;10143716;29;20215;-80
2022/03/30 13:02:36;;;;;;;26.20;14.07;;;;;17.40;99788.00;;;;10109407;29;20227;-78
2022/03/30 13:07:49;;;;;;;20.00;14.23;;;;;17.20;99779.00;;;;10137894;29;20203;-80
2022/03/30 13:12:55;;;;;;;20.30;14.77;;;;;17.20;99781.00;;;;10146037;29;20192;-80
2022/03/30 13:17:59;;;;;;;23.17;14.70;;;;;17.00;99780.00;;;;10110919;29;20279;-80
2022/03/30 13:23:07;;;;;;;22.40;15.53;;;;;16.70;99767.00;;;;10169163;29;20230;-80
2022/03/30 13:28:27;;;;;;;23.57;14.53;;;;;16.60;99759.00;;;;10123745;29;20317;-79
2022/03/30 13:33:29;;;;;;;26.50;14.73;;;;;16.50;99750.00;;;;10148850;29;20570;-79
2022/03/30 13:38:31;;;;;;;24.43;14.60;;;;;16.60;99742.00;;;;10160850;29;20195;-79
2022/03/30 13:43:34;;;;;;;24.23;14.60;;;;;17.00;99742.00;;;;10130305;29;20215;-79
2022/03/30 13:48:36;;;;;;;22.93;13.40;;;;;17.90;99739.00;;;;10148168;29;20195;-80
2022/03/30 13:53:38;;;;;;;20.50;14.40;;;;;18.20;99722.00;;;;10145153;29;20199;-80
2022/03/30 13:58:41;;;;;;;20.87;14.30;;;;;18.10;99718.00;;;;10162629;29;20195;-81
2022/03/30 14:03:43;;;;;;;16.77;11.97;;;;;17.90;99715.00;;;;10161985;29;20261;-79
2022/03/30 14:08:46;;;;;;;19.33;11.67;;;;;17.80;99715.00;;;;10132267;29;20228;-79
2022/03/30 14:13:49;;;;;;;17.60;11.18;;;;;17.40;99712.00;;;;10134875;29;20187;-80
2022/03/30 14:18:51;;;;;;;21.67;13.30;;;;;17.30;99704.00;;;;10148308;29;20604;-81
2022/03/30 14:23:54;;;;;;;17.60;13.60;;;;;17.20;99704.00;;;;10127025;29;20349;-79
2022/03/30 14:28:55;;;;;;;21.80;14.07;;;;;17.00;99704.00;;;;10156605;29;20233;-79
2022/03/30 14:33:57;;;;;;;15.17;12.43;;;;;16.80;99699.00;;;;10160157;29;20195;-80
2022/03/30 14:39:00;;;;;;;16.43;11.83;;;;;16.70;99696.00;;;;10197948;29;20248;-80
2022/03/30 14:44:02;;;;;;;20.13;12.53;;;;;16.70;99690.00;;;;10181303;29;20287;-80
2022/03/30 14:49:04;;;;;;;20.90;12.97;;;;;16.70;99685.00;;;;10183147;29;20718;-80
2022/03/30 14:54:06;;;;;;;19.50;13.17;;;;;16.70;99680.00;;;;10169966;29;20184;-80
2022/03/30 14:59:08;;;;;;;17.73;13.17;;;;;16.70;99669.00;;;;10171911;29;20195;-80
2022/03/30 15:04:10;;;;;;;18.57;11.90;;;;;16.70;99676.00;;;;10181933;29;20687;-79
2022/03/30 15:09:12;;;;;;;17.30;11.90;;;;;16.80;99669.00;;;;10165205;29;20281;-80
2022/03/30 15:14:14;;;;;;;19.87;13.07;;;;;16.60;99660.00;;;;10167646;29;20190;-80
2022/03/30 15:19:16;;;;;;;18.87;12.87;;;;;16.40;99661.00;;;;10164881;29;20210;-80
2022/03/30 15:24:18;;;;;;;18.93;12.57;;;;;16.20;99658.00;;;;10138743;29;20259;-81
2022/03/30 15:29:22;;;;;;;22.77;13.37;;;;;16.00;99656.00;;;;10178402;29;20225;-80
2022/03/30 15:34:25;;;;;;;21.47;13.07;;;;;15.70;99658.00;;;;10161077;29;20299;-80
2022/03/30 15:39:27;;;;;;;17.17;11.93;;;;;15.60;99647.00;;;;10129785;29;20210;-81
2022/03/30 15:44:29;;;;;;;19.33;12.97;;;;;15.40;99641.00;;;;10147897;29;20297;-79
2022/03/30 15:49:31;;;;;;;20.17;14.30;;;;;14.80;99648.00;;;;10153585;29;20654;-80
2022/03/30 15:54:33;;;;;;;22.93;14.83;;;;;14.30;99652.00;;;;10184622;29;20275;-80
2022/03/30 15:59:35;;;;;;;23.13;12.73;;;;;14.00;99643.00;;;;10136648;29;20210;-80
2022/03/30 16:04:37;;;;;;;20.47;13.90;;;;;13.80;99640.00;;;;10149530;29;20219;-79
2022/03/30 16:09:39;;;;;;;20.63;12.97;;;;;13.60;99647.00;;;;10152615;29;20199;-80
2022/03/30 16:14:44;;;;;;;18.37;11.40;;;;;13.40;99636.00;;;;10154023;29;20194;-79
2022/03/30 16:19:49;;;;;;;16.13;9.80;;;;;13.10;99636.00;;;;10135608;29;20190;-80
2022/03/30 16:24:52;;;;;;;16.47;10.23;;;;;13.00;99639.00;;;;10124074;29;20199;-80
2022/03/30 16:29:56;;;;;;;14.83;10.07;;;;;12.80;99643.00;;;;10151183;29;20207;-81
2022/03/30 16:34:58;;;;;;;14.43;9.70;;;;;12.60;99633.00;;;;10137826;29;20206;-80
2022/03/30 16:40:02;;;;;;;16.60;10.27;;;;;12.40;99634.00;;;;10159450;29;20198;-80
2022/03/30 16:45:06;;;;;;;17.93;11.23;;;;;12.30;99640.00;;;;10176214;29;20278;-80
2022/03/30 16:50:09;;;;;;;15.27;10.57;;;;;12.20;99635.00;;;;10137256;29;20215;-79
2022/03/30 16:55:12;;;;;;;17.37;11.93;;;;;12.20;99634.00;;;;10150795;29;20224;-81
2022/03/30 17:00:14;;;;;;;17.23;11.83;;;;;12.10;99630.00;;;;10136128;29;20255;-80
2022/03/30 17:05:16;;;;;;;18.60;13.00;;;;;12.00;99633.00;;;;10134896;29;20226;-80
2022/03/30 17:10:18;;;;;;;22.60;14.10;;;;;11.80;99630.00;;;;10133866;29;20224;-80
2022/03/30 17:15:21;;;;;;;22.47;14.17;;;;;11.60;99632.00;;;;10140282;29;20203;-78
2022/03/30 17:20:23;;;;;;;17.80;12.03;;;;;11.40;99635.00;;;;10150780;29;20264;-79
2022/03/30 17:25:26;;;;;;;19.87;11.70;;;;;11.10;99634.00;;;;10138539;29;20199;-79
2022/03/30 17:30:29;;;;;;;21.50;12.37;;;;;10.90;99634.00;;;;10155484;29;20248;-80
2022/03/30 17:35:32;;;;;;;20.27;12.37;;;;;10.70;99631.00;;;;10152853;29;20224;-83
2022/03/30 17:40:36;;;;;;;19.17;12.10;;;;;10.60;99630.00;;;;10152723;29;20215;-82
2022/03/30 17:45:38;;;;;;;20.10;11.57;;;;;10.50;99631.00;;;;10136873;29;20233;-82
2022/03/30 17:56:02;;;;;;;15.40;11.20;;;;;10.40;99629.00;;;;10151559;29;20194;-80
2022/03/30 18:01:05;;;;;;;20.30;11.87;;;;;10.40;99638.00;;;;10139717;29;20223;-81
2022/03/30 18:06:07;;;;;;;17.63;11.63;;;;;10.30;99643.00;;;;10173327;29;20363;-81
2022/03/30 18:11:10;;;;;;;20.17;11.60;;;;;10.20;99637.00;;;;10209321;29;20194;-81
2022/03/30 18:16:12;;;;;;;23.50;13.07;;;;;10.10;99634.00;;;;10207952;29;20312;-82
2022/03/30 18:21:15;;;;;;;24.20;13.70;;;;;10.00;99636.00;;;;10201214;29;20270;-79
2022/03/30 18:26:17;;;;;;;18.40;12.47;;;;;10.00;99643.00;;;;10173080;29;20267;-79
2022/03/30 18:31:19;;;;;;;20.30;12.43;;;;;9.90;99637.00;;;;10164050;29;20211;-81
2022/03/30 18:36:22;;;;;;;21.40;13.40;;;;;9.80;99645.00;;;;10184373;29;20272;-81
2022/03/30 18:41:25;;;;;;;23.63;14.90;;;;;9.70;99645.00;;;;10152026;29;20287;-82
2022/03/30 18:46:27;;;;;;;28.77;16.57;;;;;9.60;99652.00;;;;10154071;29;20199;-83
2022/03/30 18:51:30;;;;;;;30.63;18.03;;;;;9.50;99651.00;;;;10161717;29;20199;-82
2022/03/30 18:56:32;;;;;;;30.40;17.17;;;;;9.40;99646.00;;;;10170597;29;20291;-83
2022/03/30 19:01:34;;;;;;;27.87;18.33;;;;;9.30;99643.00;;;;10158078;29;20230;-82
2022/03/30 19:06:37;;;;;;;25.67;17.03;;;;;9.20;99643.00;;;;10148945;29;20240;-83
2022/03/30 19:11:39;;;;;;;28.63;17.23;;;;;9.20;99644.00;;;;10146475;29;20225;-83
2022/03/30 19:16:41;;;;;;;26.77;16.47;;;;;9.10;99638.00;;;;10167219;29;20210;-83
2022/03/30 19:21:43;;;;;;;29.80;17.13;;;;;9.10;99639.00;;;;10163779;29;20203;-83
2022/03/30 19:26:46;;;;;;;25.27;17.07;;;;;9.00;99639.00;;;;10149017;29;20203;-82
2022/03/30 19:31:48;;;;;;;26.33;17.27;;;;;9.00;99643.00;;;;10163626;29;20197;-82
2022/03/30 19:36:49;;;;;;;27.13;16.67;;;;;9.00;99655.00;;;;10125914;29;20236;-82
2022/03/30 19:41:52;;;;;;;28.63;17.57;;;;;8.90;99649.00;;;;10128242;29;20212;-82
2022/03/30 19:46:55;;;;;;;30.90;18.60;;;;;8.90;99644.00;;;;10113318;29;20207;-82
2022/03/30 19:51:56;;;;;;;27.90;17.20;;;;;8.90;99645.00;;;;10111604;29;20196;-83
2022/03/30 19:56:59;;;;;;;25.43;16.70;;;;;8.90;99642.00;;;;10111206;29;20196;-83
2022/03/30 20:02:02;;;;;;;25.90;16.83;;;;;8.90;99636.00;;;;10128791;29;20220;-83
2022/03/30 20:07:04;;;;;;;28.17;17.27;;;;;8.90;99643.00;;;;10113882;29;20203;-82
2022/03/30 20:12:09;;;;;;;26.30;16.80;;;;;8.80;99647.00;;;;10120786;29;20200;-82
2022/03/30 20:17:12;;;;;;;25.97;18.17;;;;;8.80;99650.00;;;;10162744;29;20191;-82
2022/03/30 20:22:15;;;;;;;25.13;17.87;;;;;8.70;99642.00;;;;10148769;29;20223;-83
2022/03/30 20:27:17;;;;;;;32.60;19.10;;;;;8.70;99641.00;;;;10150054;29;20210;-84
2022/03/30 20:32:19;;;;;;;27.57;17.37;;;;;8.70;99628.00;;;;10143585;29;20195;-84
2022/03/30 20:37:21;;;;;;;33.57;20.53;;;;;8.70;99640.00;;;;10125509;29;20217;-84
2022/03/30 20:42:23;;;;;;;34.23;19.73;;;;;8.60;99630.00;;;;10170679;29;20241;-84
2022/03/30 20:47:25;;;;;;;32.40;19.77;;;;;8.50;99635.00;;;;10160418;29;20199;-84
2022/03/30 20:52:27;;;;;;;33.97;21.17;;;;;8.50;99638.00;;;;10159219;29;20191;-84
2022/03/30 20:57:29;;;;;;;33.53;21.23;;;;;8.40;99628.00;;;;10160830;29;20215;-84
2022/03/30 21:02:31;;;;;;;33.10;21.03;;;;;8.40;99639.00;;;;10142348;29;20232;-83
2022/03/30 21:07:33;;;;;;;36.93;22.73;;;;;8.40;99633.00;;;;10145188;29;20206;-84
2022/03/30 21:12:39;;;;;;;34.83;22.13;;;;;8.40;99631.00;;;;10140604;29;20243;-84
2022/03/30 21:17:41;;;;;;;35.20;21.47;;;;;8.40;99626.00;;;;10171850;29;20206;-83
2022/03/30 21:22:43;;;;;;;31.17;19.90;;;;;8.40;99624.00;;;;10171791;29;20716;-84
2022/03/30 21:27:45;;;;;;;33.73;21.03;;;;;8.40;99627.00;;;;10133678;29;20211;-83
2022/03/30 21:32:46;;;;;;;36.90;23.47;;;;;8.30;99624.00;;;;10116882;29;20204;-84
2022/03/30 21:37:49;;;;;;;39.97;24.10;;;;;8.20;99627.00;;;;10146514;29;20199;-84
2022/03/30 21:42:51;;;;;;;33.77;22.60;;;;;8.20;99629.00;;;;10154589;29;20562;-84
2022/03/30 21:47:54;;;;;;;36.00;23.10;;;;;8.20;99627.00;;;;10135024;29;20222;-84
2022/03/30 21:52:56;;;;;;;35.80;21.17;;;;;8.20;99621.00;;;;10154150;29;20248;-83
2022/03/30 21:57:58;;;;;;;34.00;22.57;;;;;8.20;99621.00;;;;10130569;29;20203;-83
2022/03/30 22:03:00;;;;;;;32.30;21.83;;;;;8.20;99610.00;;;;10138267;29;20251;-83
2022/03/30 22:08:06;;;;;;;30.80;21.13;;;;;8.20;99619.00;;;;10137717;29;20214;-84
2022/03/30 22:13:12;;;;;;;34.53;22.13;;;;;8.10;99615.00;;;;10140961;29;20222;-83
2022/03/30 22:18:15;;;;;;;38.30;23.20;;;;;8.10;99620.00;;;;10154748;29;20715;-84
2022/03/30 22:23:17;;;;;;;34.20;22.53;;;;;8.10;99615.00;;;;10167773;29;20219;-83
2022/03/30 22:28:20;;;;;;;37.30;23.00;;;;;8.10;99612.00;;;;10134488;29;20203;-83
2022/03/30 22:38:42;;;;;;;35.40;21.20;;;;;8.10;99617.00;;;;10149054;29;20228;-83
2022/03/30 22:43:44;;;;;;;33.37;22.33;;;;;8.10;99614.00;;;;10149392;29;20211;-84
2022/03/30 22:48:46;;;;;;;37.27;21.80;;;;;8.10;99610.00;;;;10134595;29;20198;-83
2022/03/30 22:53:48;;;;;;;34.60;21.53;;;;;8.00;99613.00;;;;10140948;29;20256;-83
2022/03/30 22:58:52;;;;;;;32.30;20.13;;;;;8.00;99599.00;;;;10133696;29;20297;-84
2022/03/30 23:09:59;;;;;;;27.53;17.13;;;;;8.00;99599.00;;;;11118002;23;20238;-83
2022/03/30 23:15:05;;;;;;;26.03;18.03;;;;;7.90;99589.00;;;;10090788;29;20195;-82
2022/03/30 23:20:10;;;;;;;24.80;17.57;;;;;7.90;99581.00;;;;10115435;29;20198;-82
2022/03/30 23:25:13;;;;;;;30.07;18.30;;;;;7.80;99568.00;;;;10083168;29;20294;-82
2022/03/30 23:30:16;;;;;;;28.43;19.53;;;;;7.70;99572.00;;;;10076700;29;20204;-82
2022/03/30 23:35:19;;;;;;;28.10;18.20;;;;;7.70;99551.00;;;;10101300;29;20615;-82
2022/03/30 23:40:24;;;;;;;26.73;19.37;;;;;7.60;99564.00;;;;10098755;29;20202;-82
2022/03/30 23:45:27;;;;;;;32.90;19.20;;;;;7.50;99573.00;;;;10106219;29;20544;-83
2022/03/30 23:50:29;;;;;;;26.23;18.53;;;;;7.40;99564.00;;;;10113361;29;20196;-83
2022/03/30 23:55:53;;;;;;;26.13;19.23;;;;;7.30;99571.00;;;;10090292;29;20275;-82
